sim
Sign-in with your pilot id or email,
or register
Callsign
Passwort

Schedule Details

Flight Number: DLH2051
Departure: Berlin Tegel Airport (EDDT) at 20:00
Arrival: Munich Airport (EDDM) at 21:10
Route: Lufthansa Passenger Schedule. Enter filed route here before submitting Pirep.

Weather Information
Getting current METAR information for EDDT 250520Z 32005KT 280V350 9999 -RA SCT007 BKN032 13/12 Q0997 TEMPO 4000 RA BKN010
Getting current METAR information for EDDM 250520Z 19006KT 9999 -RA SCT040 13/12 Q1001 NOSIG

Schedule Frequency

Route Map